Louisville, KY (40201)

5:56 AM EDT on July 23, 2017 (GMT -0400)
WAVE 3 News Weather Garden / 811 Call Before You Dig | | Change Station
Active Advisory: Heat Advisory

Elev 459 ft 38.24 °N, 85.75 °W | Updated 2 seconds ago

Rain
Rain
71.8 °F
Feels Like 71.8 °F
N
5.0
Wind Variable Wind from ESE
Gusts 5.0 mph

Today
High -- | Low -- °F
--% Chance of Precip.
Yesterday
High -- | Low -- °F
Precip. -- in
Pressure 29.88 in
Visibility 8.0 miles
Clouds Overcast 11000 ft
Dew Point 70 °F
Humidity 93%
Rainfall 1.05 in
Snow Depth Not available.
6:38 AM 9:00 PM
Waning Crescent, 0% visible
METAR KLOU 230953Z AUTO 20012KT 8SM VCTS -RA OVC110 22/22 A2990 RMK AO2 LTG DSNT ALQDS TSB0856E11 SLP117 T02220222 PNO $
Pressure 29.88 in
Visibility 8.0 miles
Clouds Overcast 11000 ft
Dew Point 70 °F
Humidity 93%
Rainfall 1.05 in
Snow Depth Not available.
6:38 AM 9:00 PM
Waning Crescent, 0% visible
METAR KLOU 230953Z AUTO 20012KT 8SM VCTS -RA OVC110 22/22 A2990 RMK AO2 LTG DSNT ALQDS TSB0856E11 SLP117 T02220222 PNO $

Get Your Daily Forecast Email!

Thanks for signing up!

Be on the lookout for a verification email in your inbox.

You'll start receiving severe weather alerts in your inbox..

×

10-Day Weather Forecast

Almanac

Astronomy

Jul. 23, 2017 Rise Set
Actual Time
Civil Twilight
Nautical Twilight
Astronomical Twilight
Moon
Length of Visible Light
Length of Day
Tomorrow will be .
, % of the Moon is Illuminated

Today's Extremes

State Highs State Lows

Community

WunderPhotos

Category 6

Welcome to Category 6. This is the collective home for Weather Underground's featured writeups by Dr. Jeff Masters (right), Bob Henson (left), Chris Burt, and other regular contributors.

Nearby

Air Quality

  Air Quality AQ Index Pollutant
Not available.

Snow Depth

Station Depth Elevation

Earthquake Activity

City Distance Mag. Time & Date
Minimum magnitude displayed is 2.5.

Coastal Water Temperatures

Place Temperature

Stations

Nearby Weather Stations

Station Location Temp. Windchill Dew Point Humidity Wind Precip. Elev Updated Type
                   

Watches & Warnings

Heat Advisory
Issued: 3:03 AM CDT Jul. 23, 2017 – National Weather Service

... Heat advisory remains in effect until 8 PM EDT /7 PM CDT/ this
evening...

* heat index values... peak heat index values around 105.

* Impacts... the combination of hot temperatures and high
humidity will lead to an increased risk of heat related stress
and illnesses. The very Young, the elderly, those without air
conditioning, and those participating in strenuous outdoor
activities will be the most susceptible.

Precautionary/preparedness actions...

Take extra precautions... if you work or spend time outside. When
possible... reschedule strenuous activities to early morning or
evening. Know the signs and symptoms of heat exhaustion and heat
stroke. Wear light weight and loose fitting clothing when
possible and drink plenty of water.



Ebw